sensor_id;sensor_type;location;lat;lon;timestamp;temperature;humidity
22194;DHT22;11262;50.308;9.270;2022-11-20T00:02:24;0.50;99.90
22194;DHT22;11262;50.308;9.270;2022-11-20T00:04:50;0.50;99.90
22194;DHT22;11262;50.308;9.270;2022-11-20T00:07:15;0.60;99.90
22194;DHT22;11262;50.308;9.270;2022-11-20T00:09:41;0.60;99.90
22194;DHT22;11262;50.308;9.270;2022-11-20T00:12:06;0.60;99.90
22194;DHT22;11262;50.308;9.270;2022-11-20T00:14:32;0.60;99.90
22194;DHT22;11262;50.308;9.270;2022-11-20T00:16:58;0.60;99.90
22194;DHT22;11262;50.308;9.270;2022-11-20T00:19:23;0.60;99.90
22194;DHT22;11262;50.308;9.270;2022-11-20T00:21:49;0.60;99.90
22194;DHT22;11262;50.308;9.270;2022-11-20T00:24:17;0.60;99.90
22194;DHT22;11262;50.308;9.270;2022-11-20T00:26:42;0.50;99.90
22194;DHT22;11262;50.308;9.270;2022-11-20T00:29:08;0.50;99.90
22194;DHT22;11262;50.308;9.270;2022-11-20T00:31:35;0.50;99.90
22194;DHT22;11262;50.308;9.270;2022-11-20T00:34:01;0.40;99.90
22194;DHT22;11262;50.308;9.270;2022-11-20T00:36:28;0.40;99.90
22194;DHT22;11262;50.308;9.270;2022-11-20T00:38:56;0.30;99.90
22194;DHT22;11262;50.308;9.270;2022-11-20T00:41:23;0.30;99.90
22194;DHT22;11262;50.308;9.270;2022-11-20T00:43:49;0.30;99.90
22194;DHT22;11262;50.308;9.270;2022-11-20T00:46:17;0.30;99.90
22194;DHT22;11262;50.308;9.270;2022-11-20T00:48:43;0.30;99.90
22194;DHT22;11262;50.308;9.270;2022-11-20T00:51:11;0.30;99.90
22194;DHT22;11262;50.308;9.270;2022-11-20T00:53:37;0.20;99.90
22194;DHT22;11262;50.308;9.270;2022-11-20T00:56:05;0.20;99.90
22194;DHT22;11262;50.308;9.270;2022-11-20T00:58:36;0.20;99.90
22194;DHT22;11262;50.308;9.270;2022-11-20T01:01:06;0.10;99.90
22194;DHT22;11262;50.308;9.270;2022-11-20T01:03:33;0.10;99.90
22194;DHT22;11262;50.308;9.270;2022-11-20T01:06:09;0.10;99.90
22194;DHT22;11262;50.308;9.270;2022-11-20T01:08:36;0.20;99.90
22194;DHT22;11262;50.308;9.270;2022-11-20T01:11:04;0.10;99.90
22194;DHT22;11262;50.308;9.270;2022-11-20T01:13:30;0.20;99.90
22194;DHT22;11262;50.308;9.270;2022-11-20T01:16:15;0.20;99.90
22194;DHT22;11262;50.308;9.270;2022-11-20T01:18:43;0.10;99.90
22194;DHT22;11262;50.308;9.270;2022-11-20T01:21:15;0.10;99.90
22194;DHT22;11262;50.308;9.270;2022-11-20T01:23:42;0.20;99.90
22194;DHT22;11262;50.308;9.270;2022-11-20T01:26:15;0.20;99.90
22194;DHT22;11262;50.308;9.270;2022-11-20T01:28:42;0.20;99.90
22194;DHT22;11262;50.308;9.270;2022-11-20T01:31:16;0.20;99.90
22194;DHT22;11262;50.308;9.270;2022-11-20T01:33:43;0.20;99.90
22194;DHT22;11262;50.308;9.270;2022-11-20T01:36:09;0.20;99.90
22194;DHT22;11262;50.308;9.270;2022-11-20T01:38:35;0.20;99.90
22194;DHT22;11262;50.308;9.270;2022-11-20T01:41:01;0.30;99.90
22194;DHT22;11262;50.308;9.270;2022-11-20T01:43:27;0.30;99.90
22194;DHT22;11262;50.308;9.270;2022-11-20T01:48:38;0.30;99.90
22194;DHT22;11262;50.308;9.270;2022-11-20T01:51:15;0.30;99.90
22194;DHT22;11262;50.308;9.270;2022-11-20T01:53:42;0.40;99.90
22194;DHT22;11262;50.308;9.270;2022-11-20T01:56:10;0.40;99.90
22194;DHT22;11262;50.308;9.270;2022-11-20T01:58:42;0.40;99.90
22194;DHT22;11262;50.308;9.270;2022-11-20T02:01:09;0.40;99.90
22194;DHT22;11262;50.308;9.270;2022-11-20T02:03:35;0.40;99.90
22194;DHT22;11262;50.308;9.270;2022-11-20T02:06:17;0.40;99.90
22194;DHT22;11262;50.308;9.270;2022-11-20T02:08:44;0.40;99.90
22194;DHT22;11262;50.308;9.270;2022-11-20T02:11:10;0.40;99.90
22194;DHT22;11262;50.308;9.270;2022-11-20T02:13:38;0.40;99.90
22194;DHT22;11262;50.308;9.270;2022-11-20T02:16:27;0.40;99.90
22194;DHT22;11262;50.308;9.270;2022-11-20T02:18:55;0.50;99.90
22194;DHT22;11262;50.308;9.270;2022-11-20T02:21:27;0.50;99.90
22194;DHT22;11262;50.308;9.270;2022-11-20T02:29:09;0.40;99.90
22194;DHT22;11262;50.308;9.270;2022-11-20T02:31:41;0.40;99.90
22194;DHT22;11262;50.308;9.270;2022-11-20T02:34:07;0.40;99.90
22194;DHT22;11262;50.308;9.270;2022-11-20T02:36:34;0.40;99.90
22194;DHT22;11262;50.308;9.270;2022-11-20T02:39:02;0.40;99.90
22194;DHT22;11262;50.308;9.270;2022-11-20T02:41:35;0.40;99.90
22194;DHT22;11262;50.308;9.270;2022-11-20T02:44:02;0.40;99.90
22194;DHT22;11262;50.308;9.270;2022-11-20T02:46:29;0.50;99.90
22194;DHT22;11262;50.308;9.270;2022-11-20T02:48:55;0.50;99.90
22194;DHT22;11262;50.308;9.270;2022-11-20T02:51:20;0.50;99.90
22194;DHT22;11262;50.308;9.270;2022-11-20T02:53:46;0.50;99.90
22194;DHT22;11262;50.308;9.270;2022-11-20T02:56:11;0.40;99.90
22194;DHT22;11262;50.308;9.270;2022-11-20T02:58:37;0.50;99.90
22194;DHT22;11262;50.308;9.270;2022-11-20T03:01:03;0.50;99.90
22194;DHT22;11262;50.308;9.270;2022-11-20T03:03:28;0.50;99.90
22194;DHT22;11262;50.308;9.270;2022-11-20T03:05:54;0.50;99.90
22194;DHT22;11262;50.308;9.270;2022-11-20T03:08:19;0.50;99.90
22194;DHT22;11262;50.308;9.270;2022-11-20T03:10:45;0.50;99.90
22194;DHT22;11262;50.308;9.270;2022-11-20T03:13:11;0.50;99.90
22194;DHT22;11262;50.308;9.270;2022-11-20T03:15:37;0.50;99.90
22194;DHT22;11262;50.308;9.270;2022-11-20T03:18:03;0.50;99.90
22194;DHT22;11262;50.308;9.270;2022-11-20T03:20:29;0.50;99.90
22194;DHT22;11262;50.308;9.270;2022-11-20T03:22:55;0.50;99.90
22194;DHT22;11262;50.308;9.270;2022-11-20T03:25:21;0.50;99.90
22194;DHT22;11262;50.308;9.270;2022-11-20T03:27:47;0.50;99.90
22194;DHT22;11262;50.308;9.270;2022-11-20T03:30:13;0.60;99.90
22194;DHT22;11262;50.308;9.270;2022-11-20T03:32:39;0.60;99.90
22194;DHT22;11262;50.308;9.270;2022-11-20T03:35:05;0.60;99.90
22194;DHT22;11262;50.308;9.270;2022-11-20T03:37:31;0.70;99.90
22194;DHT22;11262;50.308;9.270;2022-11-20T03:39:57;0.60;99.90
22194;DHT22;11262;50.308;9.270;2022-11-20T03:42:23;0.60;99.90
22194;DHT22;11262;50.308;9.270;2022-11-20T03:45:07;0.70;99.90
22194;DHT22;11262;50.308;9.270;2022-11-20T03:47:33;0.70;99.90
22194;DHT22;11262;50.308;9.270;2022-11-20T03:49:58;0.70;99.90
22194;DHT22;11262;50.308;9.270;2022-11-20T03:52:24;0.70;99.90
22194;DHT22;11262;50.308;9.270;2022-11-20T03:54:50;0.70;99.90
22194;DHT22;11262;50.308;9.270;2022-11-20T03:57:15;0.70;99.90
22194;DHT22;11262;50.308;9.270;2022-11-20T03:59:41;0.70;99.90
22194;DHT22;11262;50.308;9.270;2022-11-20T04:02:06;0.70;99.90
22194;DHT22;11262;50.308;9.270;2022-11-20T04:04:32;0.60;99.90
22194;DHT22;11262;50.308;9.270;2022-11-20T04:06:57;0.60;99.90
22194;DHT22;11262;50.308;9.270;2022-11-20T04:09:23;0.60;99.90
22194;DHT22;11262;50.308;9.270;2022-11-20T04:11:49;0.60;99.90
22194;DHT22;11262;50.308;9.270;2022-11-20T04:14:15;0.70;99.90
22194;DHT22;11262;50.308;9.270;2022-11-20T04:16:42;0.70;99.90
22194;DHT22;11262;50.308;9.270;2022-11-20T04:19:13;0.70;99.90
22194;DHT22;11262;50.308;9.270;2022-11-20T04:21:38;0.70;99.90
22194;DHT22;11262;50.308;9.270;2022-11-20T04:24:04;0.70;99.90
22194;DHT22;11262;50.308;9.270;2022-11-20T04:26:31;0.70;99.90
22194;DHT22;11262;50.308;9.270;2022-11-20T04:28:57;0.70;99.90
22194;DHT22;11262;50.308;9.270;2022-11-20T04:31:26;0.80;99.90
22194;DHT22;11262;50.308;9.270;2022-11-20T04:33:52;0.70;99.90
22194;DHT22;11262;50.308;9.270;2022-11-20T04:38:45;0.70;99.90
22194;DHT22;11262;50.308;9.270;2022-11-20T04:41:19;0.70;99.90
22194;DHT22;11262;50.308;9.270;2022-11-20T04:43:52;0.70;99.90
22194;DHT22;11262;50.308;9.270;2022-11-20T04:46:20;0.70;99.90
22194;DHT22;11262;50.308;9.270;2022-11-20T04:48:46;0.70;99.90
22194;DHT22;11262;50.308;9.270;2022-11-20T04:51:12;0.70;99.90
22194;DHT22;11262;50.308;9.270;2022-11-20T04:53:38;0.70;99.90
22194;DHT22;11262;50.308;9.270;2022-11-20T04:56:06;0.70;99.90
22194;DHT22;11262;50.308;9.270;2022-11-20T04:58:33;0.70;99.90
22194;DHT22;11262;50.308;9.270;2022-11-20T05:01:25;0.70;99.90
22194;DHT22;11262;50.308;9.270;2022-11-20T05:03:51;0.80;99.90
22194;DHT22;11262;50.308;9.270;2022-11-20T05:06:19;0.70;99.90
22194;DHT22;11262;50.308;9.270;2022-11-20T05:08:45;0.70;99.90
22194;DHT22;11262;50.308;9.270;2022-11-20T05:11:16;0.80;99.90
22194;DHT22;11262;50.308;9.270;2022-11-20T05:13:42;0.80;99.90
22194;DHT22;11262;50.308;9.270;2022-11-20T05:16:10;0.70;99.90
22194;DHT22;11262;50.308;9.270;2022-11-20T05:18:37;0.80;99.90
22194;DHT22;11262;50.308;9.270;2022-11-20T05:21:03;0.80;99.90
22194;DHT22;11262;50.308;9.270;2022-11-20T05:23:30;0.80;99.90
22194;DHT22;11262;50.308;9.270;2022-11-20T05:25:57;0.70;99.90
22194;DHT22;11262;50.308;9.270;2022-11-20T05:28:23;0.70;99.90
22194;DHT22;11262;50.308;9.270;2022-11-20T05:30:49;0.70;99.90
22194;DHT22;11262;50.308;9.270;2022-11-20T05:33:15;0.70;99.90
22194;DHT22;11262;50.308;9.270;2022-11-20T05:35:41;0.70;99.90
22194;DHT22;11262;50.308;9.270;2022-11-20T05:38:07;0.70;99.90
22194;DHT22;11262;50.308;9.270;2022-11-20T05:40:33;0.70;99.90
22194;DHT22;11262;50.308;9.270;2022-11-20T05:42:59;0.70;99.90
22194;DHT22;11262;50.308;9.270;2022-11-20T05:45:25;0.80;99.90
22194;DHT22;11262;50.308;9.270;2022-11-20T05:47:50;0.80;99.90
22194;DHT22;11262;50.308;9.270;2022-11-20T05:50:16;0.80;99.90
22194;DHT22;11262;50.308;9.270;2022-11-20T05:52:41;0.80;99.90
22194;DHT22;11262;50.308;9.270;2022-11-20T05:55:07;0.80;99.90
22194;DHT22;11262;50.308;9.270;2022-11-20T05:57:33;0.80;99.90
22194;DHT22;11262;50.308;9.270;2022-11-20T05:59:59;0.80;99.90
22194;DHT22;11262;50.308;9.270;2022-11-20T06:02:25;0.80;99.90
22194;DHT22;11262;50.308;9.270;2022-11-20T06:04:50;0.90;99.90
22194;DHT22;11262;50.308;9.270;2022-11-20T06:07:16;0.90;99.90
22194;DHT22;11262;50.308;9.270;2022-11-20T06:09:41;0.90;99.90
22194;DHT22;11262;50.308;9.270;2022-11-20T06:12:07;0.90;99.90
22194;DHT22;11262;50.308;9.270;2022-11-20T06:14:33;0.90;99.90
22194;DHT22;11262;50.308;9.270;2022-11-20T06:16:59;0.90;99.90
22194;DHT22;11262;50.308;9.270;2022-11-20T06:19:24;0.90;99.90
22194;DHT22;11262;50.308;9.270;2022-11-20T06:21:50;1.00;99.90
22194;DHT22;11262;50.308;9.270;2022-11-20T06:24:16;0.90;99.90
22194;DHT22;11262;50.308;9.270;2022-11-20T06:26:42;1.00;99.90
22194;DHT22;11262;50.308;9.270;2022-11-20T06:29:07;1.00;99.90
22194;DHT22;11262;50.308;9.270;2022-11-20T06:31:33;0.90;99.90
22194;DHT22;11262;50.308;9.270;2022-11-20T06:34:00;1.00;99.90
22194;DHT22;11262;50.308;9.270;2022-11-20T06:36:26;1.00;99.90
22194;DHT22;11262;50.308;9.270;2022-11-20T06:38:52;1.00;99.90
22194;DHT22;11262;50.308;9.270;2022-11-20T06:41:20;1.00;99.90
22194;DHT22;11262;50.308;9.270;2022-11-20T06:43:46;1.10;99.90
22194;DHT22;11262;50.308;9.270;2022-11-20T06:46:13;1.10;99.90
22194;DHT22;11262;50.308;9.270;2022-11-20T06:48:39;1.10;99.90
22194;DHT22;11262;50.308;9.270;2022-11-20T06:51:06;1.10;99.90
22194;DHT22;11262;50.308;9.270;2022-11-20T06:53:32;1.00;99.90
22194;DHT22;11262;50.308;9.270;2022-11-20T06:55:58;1.00;99.90
22194;DHT22;11262;50.308;9.270;2022-11-20T06:58:26;0.90;99.90
22194;DHT22;11262;50.308;9.270;2022-11-20T07:00:52;1.00;99.90
22194;DHT22;11262;50.308;9.270;2022-11-20T07:03:18;1.00;99.90
22194;DHT22;11262;50.308;9.270;2022-11-20T07:05:43;1.00;99.90
22194;DHT22;11262;50.308;9.270;2022-11-20T07:08:11;1.00;99.90
22194;DHT22;11262;50.308;9.270;2022-11-20T07:10:36;1.00;99.90
22194;DHT22;11262;50.308;9.270;2022-11-20T07:13:02;1.00;99.90
22194;DHT22;11262;50.308;9.270;2022-11-20T07:15:28;1.10;99.90
22194;DHT22;11262;50.308;9.270;2022-11-20T07:17:53;1.10;99.90
22194;DHT22;11262;50.308;9.270;2022-11-20T07:22:55;1.10;99.90
22194;DHT22;11262;50.308;9.270;2022-11-20T07:25:22;1.00;99.90
22194;DHT22;11262;50.308;9.270;2022-11-20T07:27:48;1.00;99.90
22194;DHT22;11262;50.308;9.270;2022-11-20T07:30:17;1.00;99.90
22194;DHT22;11262;50.308;9.270;2022-11-20T07:32:46;0.90;99.90
22194;DHT22;11262;50.308;9.270;2022-11-20T07:35:12;0.90;99.90
22194;DHT22;11262;50.308;9.270;2022-11-20T07:37:38;0.90;99.90
22194;DHT22;11262;50.308;9.270;2022-11-20T07:40:04;0.90;99.90
22194;DHT22;11262;50.308;9.270;2022-11-20T07:42:30;1.00;99.90
22194;DHT22;11262;50.308;9.270;2022-11-20T07:44:55;1.00;99.90
22194;DHT22;11262;50.308;9.270;2022-11-20T07:47:21;1.00;99.90
22194;DHT22;11262;50.308;9.270;2022-11-20T07:49:46;1.00;99.90
22194;DHT22;11262;50.308;9.270;2022-11-20T07:52:12;1.10;99.90
22194;DHT22;11262;50.308;9.270;2022-11-20T07:54:37;1.10;99.90
22194;DHT22;11262;50.308;9.270;2022-11-20T07:57:03;1.10;99.90
22194;DHT22;11262;50.308;9.270;2022-11-20T07:59:28;1.10;99.90
22194;DHT22;11262;50.308;9.270;2022-11-20T08:01:55;1.10;99.90
22194;DHT22;11262;50.308;9.270;2022-11-20T08:04:20;1.10;99.90
22194;DHT22;11262;50.308;9.270;2022-11-20T08:06:46;1.10;99.90
22194;DHT22;11262;50.308;9.270;2022-11-20T08:09:12;1.20;99.90
22194;DHT22;11262;50.308;9.270;2022-11-20T08:11:38;1.20;99.90
22194;DHT22;11262;50.308;9.270;2022-11-20T08:14:22;1.20;99.90
22194;DHT22;11262;50.308;9.270;2022-11-20T08:16:48;1.20;99.90
22194;DHT22;11262;50.308;9.270;2022-11-20T08:19:16;1.20;99.90
22194;DHT22;11262;50.308;9.270;2022-11-20T08:21:42;1.30;99.90
22194;DHT22;11262;50.308;9.270;2022-11-20T08:24:08;1.30;99.90
22194;DHT22;11262;50.308;9.270;2022-11-20T08:26:35;1.20;99.90
22194;DHT22;11262;50.308;9.270;2022-11-20T08:29:01;1.20;99.90
22194;DHT22;11262;50.308;9.270;2022-11-20T08:31:27;1.20;99.90
22194;DHT22;11262;50.308;9.270;2022-11-20T08:33:53;1.20;99.90
22194;DHT22;11262;50.308;9.270;2022-11-20T08:36:20;1.30;99.90
22194;DHT22;11262;50.308;9.270;2022-11-20T08:38:50;1.40;99.90
22194;DHT22;11262;50.308;9.270;2022-11-20T08:41:16;1.40;99.90
22194;DHT22;11262;50.308;9.270;2022-11-20T08:44:05;1.40;99.90
22194;DHT22;11262;50.308;9.270;2022-11-20T08:46:40;1.40;99.90
22194;DHT22;11262;50.308;9.270;2022-11-20T08:49:13;1.40;99.90
22194;DHT22;11262;50.308;9.270;2022-11-20T08:51:39;1.50;99.90
22194;DHT22;11262;50.308;9.270;2022-11-20T08:54:05;1.50;99.90
22194;DHT22;11262;50.308;9.270;2022-11-20T08:56:31;1.50;99.90
22194;DHT22;11262;50.308;9.270;2022-11-20T08:58:57;1.50;99.90
22194;DHT22;11262;50.308;9.270;2022-11-20T09:01:24;1.60;99.90
22194;DHT22;11262;50.308;9.270;2022-11-20T09:03:50;1.60;99.90
22194;DHT22;11262;50.308;9.270;2022-11-20T09:06:16;1.60;99.90
22194;DHT22;11262;50.308;9.270;2022-11-20T09:08:42;1.70;99.90
22194;DHT22;11262;50.308;9.270;2022-11-20T09:11:08;1.70;99.90
22194;DHT22;11262;50.308;9.270;2022-11-20T09:13:35;1.70;99.90
22194;DHT22;11262;50.308;9.270;2022-11-20T09:16:06;1.70;99.90
22194;DHT22;11262;50.308;9.270;2022-11-20T09:18:33;1.80;99.90
22194;DHT22;11262;50.308;9.270;2022-11-20T09:21:01;1.80;99.90
22194;DHT22;11262;50.308;9.270;2022-11-20T09:23:31;1.90;99.90
22194;DHT22;11262;50.308;9.270;2022-11-20T09:25:57;1.70;99.90
22194;DHT22;11262;50.308;9.270;2022-11-20T09:28:25;1.70;99.90
22194;DHT22;11262;50.308;9.270;2022-11-20T09:30:51;1.80;99.90
22194;DHT22;11262;50.308;9.270;2022-11-20T09:33:17;1.80;99.90
22194;DHT22;11262;50.308;9.270;2022-11-20T09:35:43;1.80;99.90
22194;DHT22;11262;50.308;9.270;2022-11-20T09:38:10;1.90;99.90
22194;DHT22;11262;50.308;9.270;2022-11-20T09:40:38;2.00;99.90
22194;DHT22;11262;50.308;9.270;2022-11-20T09:46:20;2.00;99.90
22194;DHT22;11262;50.308;9.270;2022-11-20T09:51:29;2.00;99.90
22194;DHT22;11262;50.308;9.270;2022-11-20T09:56:42;2.00;99.90
22194;DHT22;11262;50.308;9.270;2022-11-20T09:59:18;2.00;99.90
22194;DHT22;11262;50.308;9.270;2022-11-20T10:01:48;2.10;99.90
22194;DHT22;11262;50.308;9.270;2022-11-20T10:04:19;2.10;99.90
22194;DHT22;11262;50.308;9.270;2022-11-20T10:07:13;2.10;99.90
22194;DHT22;11262;50.308;9.270;2022-11-20T10:09:47;2.10;99.90
22194;DHT22;11262;50.308;9.270;2022-11-20T10:12:38;2.00;99.90
22194;DHT22;11262;50.308;9.270;2022-11-20T10:15:31;2.00;99.90
22194;DHT22;11262;50.308;9.270;2022-11-20T10:23:59;2.00;99.90
22194;DHT22;11262;50.308;9.270;2022-11-20T10:26:31;2.00;99.90
22194;DHT22;11262;50.308;9.270;2022-11-20T10:29:22;2.10;99.90
22194;DHT22;11262;50.308;9.270;2022-11-20T10:31:55;2.10;99.90
22194;DHT22;11262;50.308;9.270;2022-11-20T10:37:12;2.30;99.90
22194;DHT22;11262;50.308;9.270;2022-11-20T10:39:50;2.30;99.90
22194;DHT22;11262;50.308;9.270;2022-11-20T10:42:28;2.30;99.90
22194;DHT22;11262;50.308;9.270;2022-11-20T10:45:06;2.20;99.90
22194;DHT22;11262;50.308;9.270;2022-11-20T10:47:36;2.30;99.90
22194;DHT22;11262;50.308;9.270;2022-11-20T10:50:05;2.40;99.90
22194;DHT22;11262;50.308;9.270;2022-11-20T11:00:40;2.40;99.90
22194;DHT22;11262;50.308;9.270;2022-11-20T11:03:27;2.30;99.90
22194;DHT22;11262;50.308;9.270;2022-11-20T11:08:49;2.20;99.90
22194;DHT22;11262;50.308;9.270;2022-11-20T11:11:25;2.20;99.90
22194;DHT22;11262;50.308;9.270;2022-11-20T11:13:52;2.20;99.90
22194;DHT22;11262;50.308;9.270;2022-11-20T11:16:26;2.20;99.90
22194;DHT22;11262;50.308;9.270;2022-11-20T11:19:02;2.20;99.90
22194;DHT22;11262;50.308;9.270;2022-11-20T11:21:28;2.20;99.90
22194;DHT22;11262;50.308;9.270;2022-11-20T11:24:02;2.20;99.90
22194;DHT22;11262;50.308;9.270;2022-11-20T11:26:28;2.20;99.90
22194;DHT22;11262;50.308;9.270;2022-11-20T11:29:01;2.20;99.90
22194;DHT22;11262;50.308;9.270;2022-11-20T11:31:30;2.30;99.90
22194;DHT22;11262;50.308;9.270;2022-11-20T11:34:14;2.30;99.90
22194;DHT22;11262;50.308;9.270;2022-11-20T11:36:41;2.30;99.90
22194;DHT22;11262;50.308;9.270;2022-11-20T11:39:14;2.20;99.90
22194;DHT22;11262;50.308;9.270;2022-11-20T11:41:40;2.20;99.90
22194;DHT22;11262;50.308;9.270;2022-11-20T11:44:20;2.30;99.90
22194;DHT22;11262;50.308;9.270;2022-11-20T11:47:26;2.30;99.90
22194;DHT22;11262;50.308;9.270;2022-11-20T11:56:08;2.30;99.90
22194;DHT22;11262;50.308;9.270;2022-11-20T11:58:45;2.30;99.90
22194;DHT22;11262;50.308;9.270;2022-11-20T12:03:48;2.30;99.90
22194;DHT22;11262;50.308;9.270;2022-11-20T12:06:17;2.30;99.90
22194;DHT22;11262;50.308;9.270;2022-11-20T12:11:24;2.40;99.90
22194;DHT22;11262;50.308;9.270;2022-11-20T12:14:24;2.40;99.90
22194;DHT22;11262;50.308;9.270;2022-11-20T12:16:52;2.40;99.90
22194;DHT22;11262;50.308;9.270;2022-11-20T12:19:19;2.40;99.90
22194;DHT22;11262;50.308;9.270;2022-11-20T12:30:12;2.30;99.90
22194;DHT22;11262;50.308;9.270;2022-11-20T12:43:47;2.50;99.90
22194;DHT22;11262;50.308;9.270;2022-11-20T12:46:46;2.40;99.90
22194;DHT22;11262;50.308;9.270;2022-11-20T13:07:58;2.60;99.90
22194;DHT22;11262;50.308;9.270;2022-11-20T13:10:58;2.70;99.90
22194;DHT22;11262;50.308;9.270;2022-11-20T13:16:36;2.70;99.90
22194;DHT22;11262;50.308;9.270;2022-11-20T13:19:04;2.70;99.90
22194;DHT22;11262;50.308;9.270;2022-11-20T13:24:21;2.80;99.90
22194;DHT22;11262;50.308;9.270;2022-11-20T13:29:32;2.70;99.90
22194;DHT22;11262;50.308;9.270;2022-11-20T13:32:17;2.60;99.90
22194;DHT22;11262;50.308;9.270;2022-11-20T13:34:54;2.60;99.90
22194;DHT22;11262;50.308;9.270;2022-11-20T13:37:38;2.60;99.90
22194;DHT22;11262;50.308;9.270;2022-11-20T13:42:45;2.60;99.90
22194;DHT22;11262;50.308;9.270;2022-11-20T13:45:24;2.60;99.90
22194;DHT22;11262;50.308;9.270;2022-11-20T13:47:51;2.60;99.90
22194;DHT22;11262;50.308;9.270;2022-11-20T13:50:18;2.50;99.90
22194;DHT22;11262;50.308;9.270;2022-11-20T13:55:40;2.50;99.90
22194;DHT22;11262;50.308;9.270;2022-11-20T13:58:46;2.50;99.90
22194;DHT22;11262;50.308;9.270;2022-11-20T14:01:33;2.50;99.90
22194;DHT22;11262;50.308;9.270;2022-11-20T14:04:06;2.60;99.90
22194;DHT22;11262;50.308;9.270;2022-11-20T14:06:44;2.60;99.90
22194;DHT22;11262;50.308;9.270;2022-11-20T14:09:25;2.60;99.90
22194;DHT22;11262;50.308;9.270;2022-11-20T14:11:51;2.60;99.90
22194;DHT22;11262;50.308;9.270;2022-11-20T14:14:19;2.60;99.90
22194;DHT22;11262;50.308;9.270;2022-11-20T14:16:46;2.60;99.90
22194;DHT22;11262;50.308;9.270;2022-11-20T14:21:53;2.60;99.90
22194;DHT22;11262;50.308;9.270;2022-11-20T14:24:21;2.60;99.90
22194;DHT22;11262;50.308;9.270;2022-11-20T14:26:48;2.70;99.90
22194;DHT22;11262;50.308;9.270;2022-11-20T14:29:21;2.70;99.90
22194;DHT22;11262;50.308;9.270;2022-11-20T14:31:52;2.60;99.90
22194;DHT22;11262;50.308;9.270;2022-11-20T14:34:25;2.60;99.90
22194;DHT22;11262;50.308;9.270;2022-11-20T14:36:57;2.60;99.90
22194;DHT22;11262;50.308;9.270;2022-11-20T14:39:35;2.50;99.90
22194;DHT22;11262;50.308;9.270;2022-11-20T14:42:01;2.50;99.90
22194;DHT22;11262;50.308;9.270;2022-11-20T14:44:32;2.50;99.90
22194;DHT22;11262;50.308;9.270;2022-11-20T14:47:00;2.50;99.90
22194;DHT22;11262;50.308;9.270;2022-11-20T14:49:30;2.60;99.90
22194;DHT22;11262;50.308;9.270;2022-11-20T14:52:11;2.60;99.90
22194;DHT22;11262;50.308;9.270;2022-11-20T14:54:48;2.60;99.90
22194;DHT22;11262;50.308;9.270;2022-11-20T14:57:29;2.50;99.90
22194;DHT22;11262;50.308;9.270;2022-11-20T15:02:44;2.50;99.90
22194;DHT22;11262;50.308;9.270;2022-11-20T15:05:10;2.50;99.90
22194;DHT22;11262;50.308;9.270;2022-11-20T15:07:38;2.50;99.90
22194;DHT22;11262;50.308;9.270;2022-11-20T15:12:33;2.40;99.90
22194;DHT22;11262;50.308;9.270;2022-11-20T15:15:01;2.50;99.90
22194;DHT22;11262;50.308;9.270;2022-11-20T15:17:28;2.40;99.90
22194;DHT22;11262;50.308;9.270;2022-11-20T15:19:54;2.50;99.90
22194;DHT22;11262;50.308;9.270;2022-11-20T15:22:20;2.50;99.90
22194;DHT22;11262;50.308;9.270;2022-11-20T15:24:45;2.50;99.90
22194;DHT22;11262;50.308;9.270;2022-11-20T15:27:11;2.50;99.90
22194;DHT22;11262;50.308;9.270;2022-11-20T15:29:37;2.50;99.90
22194;DHT22;11262;50.308;9.270;2022-11-20T15:32:03;2.50;99.90
22194;DHT22;11262;50.308;9.270;2022-11-20T15:34:29;2.50;99.90
22194;DHT22;11262;50.308;9.270;2022-11-20T15:36:54;2.50;99.90
22194;DHT22;11262;50.308;9.270;2022-11-20T15:39:20;2.50;99.90
22194;DHT22;11262;50.308;9.270;2022-11-20T15:41:46;2.40;99.90
22194;DHT22;11262;50.308;9.270;2022-11-20T15:44:12;2.40;99.90
22194;DHT22;11262;50.308;9.270;2022-11-20T15:46:41;2.40;99.90
22194;DHT22;11262;50.308;9.270;2022-11-20T15:49:15;2.40;99.90
22194;DHT22;11262;50.308;9.270;2022-11-20T15:51:46;2.40;99.90
22194;DHT22;11262;50.308;9.270;2022-11-20T15:54:20;2.50;99.90
22194;DHT22;11262;50.308;9.270;2022-11-20T15:56:50;2.40;99.90
22194;DHT22;11262;50.308;9.270;2022-11-20T15:59:18;2.40;99.90
22194;DHT22;11262;50.308;9.270;2022-11-20T16:01:44;2.40;99.90
22194;DHT22;11262;50.308;9.270;2022-11-20T16:04:15;2.40;99.90
22194;DHT22;11262;50.308;9.270;2022-11-20T16:06:41;2.40;99.90
22194;DHT22;11262;50.308;9.270;2022-11-20T16:09:07;2.40;99.90
22194;DHT22;11262;50.308;9.270;2022-11-20T16:11:33;2.40;99.90
22194;DHT22;11262;50.308;9.270;2022-11-20T16:14:02;2.40;99.90
22194;DHT22;11262;50.308;9.270;2022-11-20T16:16:46;2.40;99.90
22194;DHT22;11262;50.308;9.270;2022-11-20T16:19:13;2.40;99.90
22194;DHT22;11262;50.308;9.270;2022-11-20T16:21:39;2.40;99.90
22194;DHT22;11262;50.308;9.270;2022-11-20T16:24:07;2.40;99.90
22194;DHT22;11262;50.308;9.270;2022-11-20T16:26:34;2.50;99.90
22194;DHT22;11262;50.308;9.270;2022-11-20T16:29:01;2.50;99.90
22194;DHT22;11262;50.308;9.270;2022-11-20T16:31:28;2.50;99.90
22194;DHT22;11262;50.308;9.270;2022-11-20T16:33:59;2.50;99.90
22194;DHT22;11262;50.308;9.270;2022-11-20T16:36:27;2.50;99.90
22194;DHT22;11262;50.308;9.270;2022-11-20T16:38:58;2.50;99.90
22194;DHT22;11262;50.308;9.270;2022-11-20T16:41:25;2.50;99.90
22194;DHT22;11262;50.308;9.270;2022-11-20T16:43:53;2.50;99.90
22194;DHT22;11262;50.308;9.270;2022-11-20T16:46:21;2.50;99.90
22194;DHT22;11262;50.308;9.270;2022-11-20T16:49:02;2.50;99.90
22194;DHT22;11262;50.308;9.270;2022-11-20T16:51:30;2.50;99.90
22194;DHT22;11262;50.308;9.270;2022-11-20T16:53:56;2.50;99.90
22194;DHT22;11262;50.308;9.270;2022-11-20T16:56:24;2.50;99.90
22194;DHT22;11262;50.308;9.270;2022-11-20T16:58:50;2.50;99.90
22194;DHT22;11262;50.308;9.270;2022-11-20T17:01:19;2.50;99.90
22194;DHT22;11262;50.308;9.270;2022-11-20T17:03:46;2.50;99.90
22194;DHT22;11262;50.308;9.270;2022-11-20T17:06:19;2.40;99.90
22194;DHT22;11262;50.308;9.270;2022-11-20T17:08:45;2.50;99.90
22194;DHT22;11262;50.308;9.270;2022-11-20T17:11:16;2.50;99.90
22194;DHT22;11262;50.308;9.270;2022-11-20T17:13:43;2.50;99.90
22194;DHT22;11262;50.308;9.270;2022-11-20T17:16:14;2.50;99.90
22194;DHT22;11262;50.308;9.270;2022-11-20T17:18:40;2.50;99.90
22194;DHT22;11262;50.308;9.270;2022-11-20T17:21:06;2.50;99.90
22194;DHT22;11262;50.308;9.270;2022-11-20T17:23:37;2.50;99.90
22194;DHT22;11262;50.308;9.270;2022-11-20T17:26:07;2.50;99.90
22194;DHT22;11262;50.308;9.270;2022-11-20T17:28:35;2.50;99.90
22194;DHT22;11262;50.308;9.270;2022-11-20T17:31:03;2.50;99.90
22194;DHT22;11262;50.308;9.270;2022-11-20T17:33:29;2.50;99.90
22194;DHT22;11262;50.308;9.270;2022-11-20T17:35:55;2.50;99.90
22194;DHT22;11262;50.308;9.270;2022-11-20T17:38:20;2.50;99.90
22194;DHT22;11262;50.308;9.270;2022-11-20T17:40:46;2.50;99.90
22194;DHT22;11262;50.308;9.270;2022-11-20T17:43:12;2.50;99.90
22194;DHT22;11262;50.308;9.270;2022-11-20T17:45:37;2.50;99.90
22194;DHT22;11262;50.308;9.270;2022-11-20T17:48:03;2.50;99.90
22194;DHT22;11262;50.308;9.270;2022-11-20T17:50:29;2.60;99.90